PWSweather.com
Personal Weather Stations
Station Observations
27552755
Bicesse, AlcabidechePT 2645-147

BicesseAlcabidechePT 2645-147

Lat: 38.7325817, Lon: -9.388308499999994

Elevation: 0

Station Type: NetAtmo

Latest ConditionsUpdated 8:23:00 AM GMT Sunday, Sep 22, 2019
Currently Today's Max Today's Min Today's Average
Temperature 65.7°F18.7°C 65.7°F18.7°C 63.1°F17.3°C 64.4°F18.0°C
Dew Point 62.2°F16.8°C 62.2°F16.8°C 58.5°F14.7°C 60.1°F15.6°C
Winds - N N - - - - -
Wind Gusts -- -- - -
Humidity 91% 91% 88% 89%
Pressure 30.46 in1031.5 mb 30.46 in1031.5 mb 30.37 in1028.4 mb -
Hour Temp Dew Point Humidity Winds Wind Gusts Pressure Precip Precip Rate Daily Precip Total
08:23 AM 65.7°F18.7°C 62.2°F16.8°C 91% - N N -- 30.46 in1031.5 mb 0.00 in0.0 mm 0.00 in0.0 mm 0.00 in0.0 mm
08:02 AM 65.1°F18.4°C 61.7°F16.5°C 91% - N N -- 30.45 in1031.2 mb 0.00 in0.0 mm 0.00 in0.0 mm 0.00 in0.0 mm
07:42 AM 64.8°F18.2°C 61.0°F16.1°C 90% - N N -- 30.44 in1030.8 mb 0.00 in0.0 mm 0.00 in0.0 mm 0.00 in0.0 mm
07:22 AM 64.4°F18.0°C 60.6°F15.9°C 90% - N N -- 30.43 in1030.5 mb 0.00 in0.0 mm 0.00 in0.0 mm 0.00 in0.0 mm
07:01 AM 64.0°F17.8°C 60.3°F15.7°C 90% - N N -- 30.42 in1030.1 mb 0.00 in0.0 mm 0.00 in0.0 mm 0.00 in0.0 mm
06:41 AM 63.7°F17.6°C 59.5°F15.3°C 89% - N N -- 30.42 in1030.1 mb 0.00 in0.0 mm 0.00 in0.0 mm 0.00 in0.0 mm
06:20 AM 63.3°F17.4°C 59.2°F15.1°C 89% - N N -- 30.41 in1029.8 mb 0.00 in0.0 mm 0.00 in0.0 mm 0.00 in0.0 mm
06:01 AM 63.1°F17.3°C 58.5°F14.7°C 88% - N N -- 30.41 in1029.8 mb 0.00 in0.0 mm 0.01 in0.3 mm 0.00 in0.0 mm
05:40 AM 63.5°F17.5°C 58.8°F14.9°C 88% - N N -- 30.41 in1029.8 mb 0.00 in0.0 mm 0.00 in0.0 mm 0.00 in0.0 mm
05:30 AM 63.5°F17.5°C 58.8°F14.9°C 88% - N N -- 30.40 in1029.5 mb 0.00 in0.0 mm 0.00 in0.0 mm 0.00 in0.0 mm
05:00 AM 64.0°F17.8°C 59.4°F15.2°C 88% - N N -- 30.39 in1029.1 mb 0.00 in0.0 mm 0.00 in0.0 mm 0.00 in0.0 mm
04:45 AM 64.2°F17.9°C 60.1°F15.6°C 89% - N N -- 30.39 in1029.1 mb 0.00 in0.0 mm 0.00 in0.0 mm 0.00 in0.0 mm
04:25 AM 64.2°F17.9°C 60.1°F15.6°C 89% - N N -- 30.38 in1028.8 mb 0.00 in0.0 mm 0.00 in0.0 mm 0.00 in0.0 mm
04:05 AM 64.2°F17.9°C 60.1°F15.6°C 89% - N N -- 30.38 in1028.8 mb 0.00 in0.0 mm 0.00 in0.0 mm 0.00 in0.0 mm
03:45 AM 64.4°F18.0°C 60.3°F15.7°C 89% - N N -- 30.38 in1028.8 mb 0.00 in0.0 mm 0.00 in0.0 mm 0.00 in0.0 mm
03:24 AM 64.6°F18.1°C 60.4°F15.8°C 89% - N N -- 30.38 in1028.8 mb 0.00 in0.0 mm 0.00 in0.0 mm 0.00 in0.0 mm
03:04 AM 64.6°F18.1°C 60.4°F15.8°C 89% - N N -- 30.37 in1028.4 mb 0.00 in0.0 mm 0.00 in0.0 mm 0.00 in0.0 mm
02:44 AM 64.4°F18.0°C 59.7°F15.4°C 88% - N N -- 30.37 in1028.4 mb 0.00 in0.0 mm 0.00 in0.0 mm 0.00 in0.0 mm
02:24 AM 64.8°F18.2°C 60.1°F15.6°C 88% - N N -- 30.37 in1028.4 mb 0.00 in0.0 mm 0.00 in0.0 mm 0.00 in0.0 mm
02:04 AM 64.8°F18.2°C 60.1°F15.6°C 88% - N N -- 30.37 in1028.4 mb 0.00 in0.0 mm 0.00 in0.0 mm 0.00 in0.0 mm
01:44 AM 64.8°F18.2°C 60.1°F15.6°C 88% - N N -- 30.38 in1028.8 mb 0.00 in0.0 mm 0.00 in0.0 mm 0.00 in0.0 mm
01:23 AM 64.8°F18.2°C 60.6°F15.9°C 89% - N N -- 30.38 in1028.8 mb 0.00 in0.0 mm 0.00 in0.0 mm 0.00 in0.0 mm
01:03 AM 64.6°F18.1°C 60.4°F15.8°C 89% - N N -- 30.37 in1028.4 mb 0.00 in0.0 mm 0.00 in0.0 mm 0.00 in0.0 mm
12:43 AM 64.6°F18.1°C 60.4°F15.8°C 89% - N N -- 30.37 in1028.4 mb 0.00 in0.0 mm 0.00 in0.0 mm 0.00 in0.0 mm
12:23 AM 64.6°F18.1°C 60.4°F15.8°C 89% - N N -- 30.37 in1028.4 mb 0.00 in0.0 mm 0.00 in0.0 mm 0.00 in0.0 mm
12:03 AM 64.4°F18.0°C 59.7°F15.4°C 88% - N N -- 30.37 in1028.4 mb 0.00 in0.0 mm 0.00 in0.0 mm 0.00 in0.0 mm